sensor_id;sensor_type;location;lat;lon;timestamp;temperature;humidity
37782;DHT22;23621;50.878;4.584;2023-05-18T00:00:34;16.40;58.60
37782;DHT22;23621;50.878;4.584;2023-05-18T00:03:22;16.40;58.50
37782;DHT22;23621;50.878;4.584;2023-05-18T00:06:09;16.40;58.60
37782;DHT22;23621;50.878;4.584;2023-05-18T00:08:56;16.30;58.60
37782;DHT22;23621;50.878;4.584;2023-05-18T00:11:44;16.30;58.80
37782;DHT22;23621;50.878;4.584;2023-05-18T00:14:31;16.20;58.70
37782;DHT22;23621;50.878;4.584;2023-05-18T00:17:19;16.20;58.60
37782;DHT22;23621;50.878;4.584;2023-05-18T00:20:08;16.10;58.60
37782;DHT22;23621;50.878;4.584;2023-05-18T00:22:55;16.10;58.70
37782;DHT22;23621;50.878;4.584;2023-05-18T00:25:43;16.10;58.80
37782;DHT22;23621;50.878;4.584;2023-05-18T00:28:30;16.10;58.80
37782;DHT22;23621;50.878;4.584;2023-05-18T00:31:17;16.00;58.80
37782;DHT22;23621;50.878;4.584;2023-05-18T00:34:06;16.00;59.00
37782;DHT22;23621;50.878;4.584;2023-05-18T00:36:53;15.90;58.90
37782;DHT22;23621;50.878;4.584;2023-05-18T00:39:40;15.90;59.00
37782;DHT22;23621;50.878;4.584;2023-05-18T00:42:28;15.80;58.90
37782;DHT22;23621;50.878;4.584;2023-05-18T00:45:15;15.80;59.00
37782;DHT22;23621;50.878;4.584;2023-05-18T00:48:03;15.80;59.00
37782;DHT22;23621;50.878;4.584;2023-05-18T00:50:50;15.80;59.00
37782;DHT22;23621;50.878;4.584;2023-05-18T00:53:38;15.80;59.00
37782;DHT22;23621;50.878;4.584;2023-05-18T00:56:27;15.70;58.90
37782;DHT22;23621;50.878;4.584;2023-05-18T00:59:15;15.70;59.00
37782;DHT22;23621;50.878;4.584;2023-05-18T01:02:02;15.70;59.10
37782;DHT22;23621;50.878;4.584;2023-05-18T01:04:50;15.60;59.20
37782;DHT22;23621;50.878;4.584;2023-05-18T01:07:39;15.60;59.30
37782;DHT22;23621;50.878;4.584;2023-05-18T01:10:32;15.60;59.40
37782;DHT22;23621;50.878;4.584;2023-05-18T01:13:30;15.60;59.50
37782;DHT22;23621;50.878;4.584;2023-05-18T01:16:25;15.60;59.40
37782;DHT22;23621;50.878;4.584;2023-05-18T01:22:56;15.50;59.20
37782;DHT22;23621;50.878;4.584;2023-05-18T01:28:44;15.40;59.20
37782;DHT22;23621;50.878;4.584;2023-05-18T01:31:33;15.30;59.20
37782;DHT22;23621;50.878;4.584;2023-05-18T01:34:21;15.30;59.40
37782;DHT22;23621;50.878;4.584;2023-05-18T01:37:08;15.20;59.40
37782;DHT22;23621;50.878;4.584;2023-05-18T01:39:55;15.20;59.40
37782;DHT22;23621;50.878;4.584;2023-05-18T01:42:46;15.20;59.40
37782;DHT22;23621;50.878;4.584;2023-05-18T01:45:39;15.10;59.40
37782;DHT22;23621;50.878;4.584;2023-05-18T01:48:28;15.00;59.40
37782;DHT22;23621;50.878;4.584;2023-05-18T01:51:19;15.00;59.40
37782;DHT22;23621;50.878;4.584;2023-05-18T01:54:07;15.00;59.40
37782;DHT22;23621;50.878;4.584;2023-05-18T01:56:57;15.00;59.40
37782;DHT22;23621;50.878;4.584;2023-05-18T01:59:47;15.00;59.50
37782;DHT22;23621;50.878;4.584;2023-05-18T02:02:34;14.90;59.50
37782;DHT22;23621;50.878;4.584;2023-05-18T02:05:22;14.90;59.50
37782;DHT22;23621;50.878;4.584;2023-05-18T02:08:09;14.90;59.40
37782;DHT22;23621;50.878;4.584;2023-05-18T02:10:57;14.90;59.50
37782;DHT22;23621;50.878;4.584;2023-05-18T02:13:44;14.80;59.50
37782;DHT22;23621;50.878;4.584;2023-05-18T02:16:32;14.80;59.50
37782;DHT22;23621;50.878;4.584;2023-05-18T02:19:20;14.70;59.50
37782;DHT22;23621;50.878;4.584;2023-05-18T02:22:08;14.70;59.60
37782;DHT22;23621;50.878;4.584;2023-05-18T02:24:55;14.60;59.50
37782;DHT22;23621;50.878;4.584;2023-05-18T02:27:42;14.60;59.60
37782;DHT22;23621;50.878;4.584;2023-05-18T02:30:30;14.60;59.70
37782;DHT22;23621;50.878;4.584;2023-05-18T02:33:19;14.60;59.80
37782;DHT22;23621;50.878;4.584;2023-05-18T02:36:13;14.60;59.80
37782;DHT22;23621;50.878;4.584;2023-05-18T02:39:00;14.60;59.80
37782;DHT22;23621;50.878;4.584;2023-05-18T02:41:47;14.60;59.70
37782;DHT22;23621;50.878;4.584;2023-05-18T02:44:35;14.50;59.70
37782;DHT22;23621;50.878;4.584;2023-05-18T02:47:22;14.50;59.70
37782;DHT22;23621;50.878;4.584;2023-05-18T02:50:10;14.50;59.80
37782;DHT22;23621;50.878;4.584;2023-05-18T02:52:57;14.50;59.90
37782;DHT22;23621;50.878;4.584;2023-05-18T02:55:44;14.40;59.90
37782;DHT22;23621;50.878;4.584;2023-05-18T02:58:32;14.40;60.00
37782;DHT22;23621;50.878;4.584;2023-05-18T03:01:19;14.40;60.00
37782;DHT22;23621;50.878;4.584;2023-05-18T03:04:07;14.40;60.00
37782;DHT22;23621;50.878;4.584;2023-05-18T03:06:54;14.40;60.00
37782;DHT22;23621;50.878;4.584;2023-05-18T03:09:43;14.40;60.10
37782;DHT22;23621;50.878;4.584;2023-05-18T03:12:30;14.40;60.20
37782;DHT22;23621;50.878;4.584;2023-05-18T03:15:17;14.30;60.10
37782;DHT22;23621;50.878;4.584;2023-05-18T03:18:05;14.30;60.00
37782;DHT22;23621;50.878;4.584;2023-05-18T03:20:53;14.20;60.00
37782;DHT22;23621;50.878;4.584;2023-05-18T03:23:40;14.20;60.10
37782;DHT22;23621;50.878;4.584;2023-05-18T03:26:27;14.10;60.00
37782;DHT22;23621;50.878;4.584;2023-05-18T03:29:17;14.10;60.30
37782;DHT22;23621;50.878;4.584;2023-05-18T03:32:06;14.10;60.20
37782;DHT22;23621;50.878;4.584;2023-05-18T03:34:54;14.10;60.30
37782;DHT22;23621;50.878;4.584;2023-05-18T03:37:42;14.10;60.20
37782;DHT22;23621;50.878;4.584;2023-05-18T03:40:29;14.00;60.30
37782;DHT22;23621;50.878;4.584;2023-05-18T03:43:16;14.00;60.30
37782;DHT22;23621;50.878;4.584;2023-05-18T03:46:04;14.00;60.40
37782;DHT22;23621;50.878;4.584;2023-05-18T03:48:51;14.00;60.40
37782;DHT22;23621;50.878;4.584;2023-05-18T03:51:40;14.00;60.40
37782;DHT22;23621;50.878;4.584;2023-05-18T03:54:27;13.90;60.30
37782;DHT22;23621;50.878;4.584;2023-05-18T03:57:15;13.90;60.40
37782;DHT22;23621;50.878;4.584;2023-05-18T04:00:04;13.90;60.60
37782;DHT22;23621;50.878;4.584;2023-05-18T04:02:57;13.90;60.70
37782;DHT22;23621;50.878;4.584;2023-05-18T04:05:45;13.90;60.60
37782;DHT22;23621;50.878;4.584;2023-05-18T04:08:32;13.90;61.40
37782;DHT22;23621;50.878;4.584;2023-05-18T04:11:20;13.80;60.70
37782;DHT22;23621;50.878;4.584;2023-05-18T04:14:09;13.80;60.80
37782;DHT22;23621;50.878;4.584;2023-05-18T04:16:57;13.80;60.90
37782;DHT22;23621;50.878;4.584;2023-05-18T04:19:50;13.70;61.60
37782;DHT22;23621;50.878;4.584;2023-05-18T04:22:42;13.70;60.70
37782;DHT22;23621;50.878;4.584;2023-05-18T04:25:29;13.70;60.90
37782;DHT22;23621;50.878;4.584;2023-05-18T04:28:17;13.70;60.90
37782;DHT22;23621;50.878;4.584;2023-05-18T04:31:05;13.80;61.10
37782;DHT22;23621;50.878;4.584;2023-05-18T04:33:52;13.80;61.10
37782;DHT22;23621;50.878;4.584;2023-05-18T04:36:40;13.80;61.40
37782;DHT22;23621;50.878;4.584;2023-05-18T04:39:30;13.80;61.50
37782;DHT22;23621;50.878;4.584;2023-05-18T04:42:18;13.80;61.60
37782;DHT22;23621;50.878;4.584;2023-05-18T04:45:06;13.80;61.60
37782;DHT22;23621;50.878;4.584;2023-05-18T04:47:53;13.80;61.80
37782;DHT22;23621;50.878;4.584;2023-05-18T04:50:40;13.80;61.80
37782;DHT22;23621;50.878;4.584;2023-05-18T04:53:28;13.80;62.00
37782;DHT22;23621;50.878;4.584;2023-05-18T04:56:20;13.80;62.00
37782;DHT22;23621;50.878;4.584;2023-05-18T04:59:08;13.90;62.30
37782;DHT22;23621;50.878;4.584;2023-05-18T05:01:56;13.90;62.40
37782;DHT22;23621;50.878;4.584;2023-05-18T05:04:44;13.90;62.40
37782;DHT22;23621;50.878;4.584;2023-05-18T05:07:31;14.00;62.70
37782;DHT22;23621;50.878;4.584;2023-05-18T05:10:19;14.00;62.70
37782;DHT22;23621;50.878;4.584;2023-05-18T05:17:08;14.10;63.20
37782;DHT22;23621;50.878;4.584;2023-05-18T05:19:55;14.10;63.00
37782;DHT22;23621;50.878;4.584;2023-05-18T05:22:43;14.10;63.10
37782;DHT22;23621;50.878;4.584;2023-05-18T05:25:30;14.20;63.40
37782;DHT22;23621;50.878;4.584;2023-05-18T05:28:18;14.30;63.50
37782;DHT22;23621;50.878;4.584;2023-05-18T05:31:05;14.30;63.40
37782;DHT22;23621;50.878;4.584;2023-05-18T05:33:52;14.40;63.50
37782;DHT22;23621;50.878;4.584;2023-05-18T05:36:40;14.40;63.40
37782;DHT22;23621;50.878;4.584;2023-05-18T05:39:27;14.40;63.40
37782;DHT22;23621;50.878;4.584;2023-05-18T05:42:15;14.50;63.70
37782;DHT22;23621;50.878;4.584;2023-05-18T05:45:02;14.60;63.70
37782;DHT22;23621;50.878;4.584;2023-05-18T05:47:50;14.60;63.50
37782;DHT22;23621;50.878;4.584;2023-05-18T05:50:37;14.70;63.70
37782;DHT22;23621;50.878;4.584;2023-05-18T05:53:24;14.70;63.50
37782;DHT22;23621;50.878;4.584;2023-05-18T05:56:12;14.80;63.30
37782;DHT22;23621;50.878;4.584;2023-05-18T05:58:59;14.80;63.10
37782;DHT22;23621;50.878;4.584;2023-05-18T06:01:46;14.90;62.90
37782;DHT22;23621;50.878;4.584;2023-05-18T06:04:34;15.00;62.60
37782;DHT22;23621;50.878;4.584;2023-05-18T06:07:21;15.10;62.40
37782;DHT22;23621;50.878;4.584;2023-05-18T06:10:09;15.20;62.40
37782;DHT22;23621;50.878;4.584;2023-05-18T06:12:56;15.30;62.20
37782;DHT22;23621;50.878;4.584;2023-05-18T06:15:43;15.30;62.00
37782;DHT22;23621;50.878;4.584;2023-05-18T06:18:30;15.40;61.80
37782;DHT22;23621;50.878;4.584;2023-05-18T06:21:18;15.50;61.80
37782;DHT22;23621;50.878;4.584;2023-05-18T06:24:05;15.50;61.70
37782;DHT22;23621;50.878;4.584;2023-05-18T06:26:53;15.60;61.70
37782;DHT22;23621;50.878;4.584;2023-05-18T06:29:40;15.60;61.50
37782;DHT22;23621;50.878;4.584;2023-05-18T06:32:27;15.70;61.40
37782;DHT22;23621;50.878;4.584;2023-05-18T06:35:15;15.80;61.40
37782;DHT22;23621;50.878;4.584;2023-05-18T06:38:02;15.80;61.20
37782;DHT22;23621;50.878;4.584;2023-05-18T06:40:50;15.80;61.10
37782;DHT22;23621;50.878;4.584;2023-05-18T06:43:37;15.90;61.20
37782;DHT22;23621;50.878;4.584;2023-05-18T06:46:28;15.90;61.30
37782;DHT22;23621;50.878;4.584;2023-05-18T06:49:15;15.90;61.20
37782;DHT22;23621;50.878;4.584;2023-05-18T06:52:03;16.00;61.10
37782;DHT22;23621;50.878;4.584;2023-05-18T06:54:50;16.00;61.80
37782;DHT22;23621;50.878;4.584;2023-05-18T06:57:37;16.10;61.80
37782;DHT22;23621;50.878;4.584;2023-05-18T07:00:24;16.10;61.00
37782;DHT22;23621;50.878;4.584;2023-05-18T07:03:12;16.20;61.10
37782;DHT22;23621;50.878;4.584;2023-05-18T07:05:59;16.20;61.00
37782;DHT22;23621;50.878;4.584;2023-05-18T07:08:47;16.30;61.10
37782;DHT22;23621;50.878;4.584;2023-05-18T07:11:34;16.40;61.00
37782;DHT22;23621;50.878;4.584;2023-05-18T07:14:22;16.40;60.90
37782;DHT22;23621;50.878;4.584;2023-05-18T07:17:09;16.40;60.80
37782;DHT22;23621;50.878;4.584;2023-05-18T07:19:57;16.50;60.80
37782;DHT22;23621;50.878;4.584;2023-05-18T07:22:44;16.60;60.70
37782;DHT22;23621;50.878;4.584;2023-05-18T07:25:31;16.60;60.70
37782;DHT22;23621;50.878;4.584;2023-05-18T07:28:19;16.60;60.60
37782;DHT22;23621;50.878;4.584;2023-05-18T07:31:06;16.70;60.50
37782;DHT22;23621;50.878;4.584;2023-05-18T07:33:53;16.70;60.40
37782;DHT22;23621;50.878;4.584;2023-05-18T07:36:41;16.70;60.50
37782;DHT22;23621;50.878;4.584;2023-05-18T07:39:28;16.70;60.60
37782;DHT22;23621;50.878;4.584;2023-05-18T07:42:15;16.70;60.50
37782;DHT22;23621;50.878;4.584;2023-05-18T07:45:03;16.70;60.50
37782;DHT22;23621;50.878;4.584;2023-05-18T07:47:50;16.70;60.50
37782;DHT22;23621;50.878;4.584;2023-05-18T07:50:38;16.70;60.70
37782;DHT22;23621;50.878;4.584;2023-05-18T07:53:25;16.80;60.90
37782;DHT22;23621;50.878;4.584;2023-05-18T07:56:12;16.90;60.90
37782;DHT22;23621;50.878;4.584;2023-05-18T07:59:00;16.90;60.70
37782;DHT22;23621;50.878;4.584;2023-05-18T08:01:47;16.90;60.70
37782;DHT22;23621;50.878;4.584;2023-05-18T08:04:35;16.90;60.50
37782;DHT22;23621;50.878;4.584;2023-05-18T08:07:22;17.00;60.40
37782;DHT22;23621;50.878;4.584;2023-05-18T08:10:12;17.00;60.50
37782;DHT22;23621;50.878;4.584;2023-05-18T08:12:59;17.00;60.40
37782;DHT22;23621;50.878;4.584;2023-05-18T08:15:46;17.00;60.40
37782;DHT22;23621;50.878;4.584;2023-05-18T08:18:49;17.00;60.40
37782;DHT22;23621;50.878;4.584;2023-05-18T08:21:36;17.10;60.40
37782;DHT22;23621;50.878;4.584;2023-05-18T08:24:24;17.10;60.30
37782;DHT22;23621;50.878;4.584;2023-05-18T08:27:11;17.10;61.30
37782;DHT22;23621;50.878;4.584;2023-05-18T08:29:58;17.10;60.70
37782;DHT22;23621;50.878;4.584;2023-05-18T08:32:49;17.10;60.70
37782;DHT22;23621;50.878;4.584;2023-05-18T08:35:36;17.20;60.80
37782;DHT22;23621;50.878;4.584;2023-05-18T08:38:25;17.20;60.60
37782;DHT22;23621;50.878;4.584;2023-05-18T08:41:22;17.20;60.50
37782;DHT22;23621;50.878;4.584;2023-05-18T08:44:24;17.20;60.50
37782;DHT22;23621;50.878;4.584;2023-05-18T08:47:13;17.30;60.70
37782;DHT22;23621;50.878;4.584;2023-05-18T08:50:01;17.40;60.70
37782;DHT22;23621;50.878;4.584;2023-05-18T08:52:54;17.40;60.60
37782;DHT22;23621;50.878;4.584;2023-05-18T08:55:44;17.40;60.40
37782;DHT22;23621;50.878;4.584;2023-05-18T08:58:35;17.40;60.50
37782;DHT22;23621;50.878;4.584;2023-05-18T09:01:25;17.50;60.90
37782;DHT22;23621;50.878;4.584;2023-05-18T09:04:17;17.60;60.90
37782;DHT22;23621;50.878;4.584;2023-05-18T09:07:07;17.70;60.50
37782;DHT22;23621;50.878;4.584;2023-05-18T09:09:55;17.80;60.40
37782;DHT22;23621;50.878;4.584;2023-05-18T09:12:44;17.90;60.00
37782;DHT22;23621;50.878;4.584;2023-05-18T09:15:33;18.00;59.80
37782;DHT22;23621;50.878;4.584;2023-05-18T09:18:21;18.00;59.50
37782;DHT22;23621;50.878;4.584;2023-05-18T09:21:12;18.20;59.50
37782;DHT22;23621;50.878;4.584;2023-05-18T09:23:59;18.20;59.20
37782;DHT22;23621;50.878;4.584;2023-05-18T09:26:47;18.40;59.20
37782;DHT22;23621;50.878;4.584;2023-05-18T09:29:34;18.40;59.00
37782;DHT22;23621;50.878;4.584;2023-05-18T09:32:22;18.50;58.70
37782;DHT22;23621;50.878;4.584;2023-05-18T09:35:11;18.60;58.20
37782;DHT22;23621;50.878;4.584;2023-05-18T09:38:02;18.70;57.60
37782;DHT22;23621;50.878;4.584;2023-05-18T09:40:50;18.70;57.30
37782;DHT22;23621;50.878;4.584;2023-05-18T09:43:38;18.80;57.30
37782;DHT22;23621;50.878;4.584;2023-05-18T09:46:30;18.90;57.10
37782;DHT22;23621;50.878;4.584;2023-05-18T09:49:20;19.00;57.10
37782;DHT22;23621;50.878;4.584;2023-05-18T09:52:08;19.20;57.30
37782;DHT22;23621;50.878;4.584;2023-05-18T09:54:57;19.30;56.80
37782;DHT22;23621;50.878;4.584;2023-05-18T09:57:49;19.40;56.40
37782;DHT22;23621;50.878;4.584;2023-05-18T10:00:40;19.40;55.70
37782;DHT22;23621;50.878;4.584;2023-05-18T10:03:36;19.40;55.00
37782;DHT22;23621;50.878;4.584;2023-05-18T10:06:26;19.50;54.50
37782;DHT22;23621;50.878;4.584;2023-05-18T10:09:16;19.60;54.10
37782;DHT22;23621;50.878;4.584;2023-05-18T10:12:16;19.60;53.90
37782;DHT22;23621;50.878;4.584;2023-05-18T10:15:04;19.70;54.40
37782;DHT22;23621;50.878;4.584;2023-05-18T10:17:55;19.80;54.30
37782;DHT22;23621;50.878;4.584;2023-05-18T10:20:45;19.80;53.60
37782;DHT22;23621;50.878;4.584;2023-05-18T10:23:35;20.00;53.50
37782;DHT22;23621;50.878;4.584;2023-05-18T10:26:24;20.00;53.10
37782;DHT22;23621;50.878;4.584;2023-05-18T10:29:15;20.20;53.70
37782;DHT22;23621;50.878;4.584;2023-05-18T10:32:03;20.20;53.00
37782;DHT22;23621;50.878;4.584;2023-05-18T10:34:55;20.40;52.70
37782;DHT22;23621;50.878;4.584;2023-05-18T10:37:45;20.50;53.00
37782;DHT22;23621;50.878;4.584;2023-05-18T10:40:37;20.60;52.80
37782;DHT22;23621;50.878;4.584;2023-05-18T10:43:26;20.70;53.30
37782;DHT22;23621;50.878;4.584;2023-05-18T10:46:14;20.80;52.70
37782;DHT22;23621;50.878;4.584;2023-05-18T10:49:03;20.80;52.00
37782;DHT22;23621;50.878;4.584;2023-05-18T10:51:52;20.80;51.30
37782;DHT22;23621;50.878;4.584;2023-05-18T10:54:43;20.90;51.00
37782;DHT22;23621;50.878;4.584;2023-05-18T10:57:40;21.00;51.00
37782;DHT22;23621;50.878;4.584;2023-05-18T11:00:32;21.10;50.80
37782;DHT22;23621;50.878;4.584;2023-05-18T11:03:20;21.10;50.60
37782;DHT22;23621;50.878;4.584;2023-05-18T11:06:10;21.10;50.40
37782;DHT22;23621;50.878;4.584;2023-05-18T11:08:58;21.20;50.40
37782;DHT22;23621;50.878;4.584;2023-05-18T11:11:58;21.20;50.50
37782;DHT22;23621;50.878;4.584;2023-05-18T11:14:50;21.30;50.50
37782;DHT22;23621;50.878;4.584;2023-05-18T11:17:38;21.30;50.60
37782;DHT22;23621;50.878;4.584;2023-05-18T11:20:25;21.40;50.60
37782;DHT22;23621;50.878;4.584;2023-05-18T11:23:13;21.40;50.60
37782;DHT22;23621;50.878;4.584;2023-05-18T11:26:15;21.50;50.80
37782;DHT22;23621;50.878;4.584;2023-05-18T11:29:18;21.50;50.70
37782;DHT22;23621;50.878;4.584;2023-05-18T11:32:27;21.50;50.50
37782;DHT22;23621;50.878;4.584;2023-05-18T11:35:24;21.60;50.00
37782;DHT22;23621;50.878;4.584;2023-05-18T11:38:11;21.60;49.50
37782;DHT22;23621;50.878;4.584;2023-05-18T11:40:59;21.60;50.00
37782;DHT22;23621;50.878;4.584;2023-05-18T11:47:08;21.60;49.10
37782;DHT22;23621;50.878;4.584;2023-05-18T11:49:56;21.60;49.10
37782;DHT22;23621;50.878;4.584;2023-05-18T11:52:51;21.50;49.00
37782;DHT22;23621;50.878;4.584;2023-05-18T11:55:40;21.60;49.00
37782;DHT22;23621;50.878;4.584;2023-05-18T11:58:29;21.50;48.90
37782;DHT22;23621;50.878;4.584;2023-05-18T12:01:17;21.50;48.90
37782;DHT22;23621;50.878;4.584;2023-05-18T12:04:04;21.50;48.90
37782;DHT22;23621;50.878;4.584;2023-05-18T12:06:52;21.50;49.50
37782;DHT22;23621;50.878;4.584;2023-05-18T12:09:41;21.50;49.40
37782;DHT22;23621;50.878;4.584;2023-05-18T12:12:33;21.60;49.10
37782;DHT22;23621;50.878;4.584;2023-05-18T12:15:22;21.60;48.90
37782;DHT22;23621;50.878;4.584;2023-05-18T12:18:10;21.60;49.20
37782;DHT22;23621;50.878;4.584;2023-05-18T12:20:57;21.60;49.10
37782;DHT22;23621;50.878;4.584;2023-05-18T12:23:44;21.70;49.10
37782;DHT22;23621;50.878;4.584;2023-05-18T12:26:32;21.70;49.20
37782;DHT22;23621;50.878;4.584;2023-05-18T12:29:19;21.80;49.50
37782;DHT22;23621;50.878;4.584;2023-05-18T12:32:09;21.80;49.50
37782;DHT22;23621;50.878;4.584;2023-05-18T12:34:57;21.90;49.80
37782;DHT22;23621;50.878;4.584;2023-05-18T12:37:46;21.90;49.60
37782;DHT22;23621;50.878;4.584;2023-05-18T12:40:34;21.90;49.60
37782;DHT22;23621;50.878;4.584;2023-05-18T12:43:33;21.90;49.70
37782;DHT22;23621;50.878;4.584;2023-05-18T12:46:21;22.00;50.10
37782;DHT22;23621;50.878;4.584;2023-05-18T12:49:10;22.00;50.50
37782;DHT22;23621;50.878;4.584;2023-05-18T12:52:13;22.10;50.40
37782;DHT22;23621;50.878;4.584;2023-05-18T12:55:00;22.20;49.80
37782;DHT22;23621;50.878;4.584;2023-05-18T13:00:49;22.40;48.50
37782;DHT22;23621;50.878;4.584;2023-05-18T13:03:40;22.50;48.40
37782;DHT22;23621;50.878;4.584;2023-05-18T13:06:28;22.50;48.50
37782;DHT22;23621;50.878;4.584;2023-05-18T13:09:15;22.60;48.20
37782;DHT22;23621;50.878;4.584;2023-05-18T13:12:03;22.60;48.20
37782;DHT22;23621;50.878;4.584;2023-05-18T13:14:54;22.70;48.60
37782;DHT22;23621;50.878;4.584;2023-05-18T13:17:55;22.80;49.20
37782;DHT22;23621;50.878;4.584;2023-05-18T13:20:49;22.80;48.20
37782;DHT22;23621;50.878;4.584;2023-05-18T13:23:37;22.80;48.40
37782;DHT22;23621;50.878;4.584;2023-05-18T13:26:25;22.80;48.20
37782;DHT22;23621;50.878;4.584;2023-05-18T13:29:13;22.80;48.20
37782;DHT22;23621;50.878;4.584;2023-05-18T13:32:00;22.80;48.40
37782;DHT22;23621;50.878;4.584;2023-05-18T13:38:59;22.80;47.90
37782;DHT22;23621;50.878;4.584;2023-05-18T13:41:46;22.80;48.00
37782;DHT22;23621;50.878;4.584;2023-05-18T13:44:34;22.80;48.00
37782;DHT22;23621;50.878;4.584;2023-05-18T13:47:21;22.80;47.80
37782;DHT22;23621;50.878;4.584;2023-05-18T13:50:08;22.80;48.00
37782;DHT22;23621;50.878;4.584;2023-05-18T13:52:56;22.80;47.60
37782;DHT22;23621;50.878;4.584;2023-05-18T13:55:43;22.80;48.00
37782;DHT22;23621;50.878;4.584;2023-05-18T13:58:30;22.80;47.60
37782;DHT22;23621;50.878;4.584;2023-05-18T14:01:18;22.80;47.20
37782;DHT22;23621;50.878;4.584;2023-05-18T14:04:07;22.70;47.00
37782;DHT22;23621;50.878;4.584;2023-05-18T14:06:54;22.80;47.10
37782;DHT22;23621;50.878;4.584;2023-05-18T14:09:42;22.80;47.20
37782;DHT22;23621;50.878;4.584;2023-05-18T14:12:29;22.80;47.30
37782;DHT22;23621;50.878;4.584;2023-05-18T14:15:16;22.90;47.80
37782;DHT22;23621;50.878;4.584;2023-05-18T14:18:03;22.90;47.60
37782;DHT22;23621;50.878;4.584;2023-05-18T14:20:51;23.00;47.60
37782;DHT22;23621;50.878;4.584;2023-05-18T14:23:39;23.10;47.90
37782;DHT22;23621;50.878;4.584;2023-05-18T14:26:26;23.10;47.60
37782;DHT22;23621;50.878;4.584;2023-05-18T14:29:14;23.20;47.60
37782;DHT22;23621;50.878;4.584;2023-05-18T14:32:01;23.30;47.60
37782;DHT22;23621;50.878;4.584;2023-05-18T14:34:49;23.30;47.00
37782;DHT22;23621;50.878;4.584;2023-05-18T14:37:41;23.40;47.10
37782;DHT22;23621;50.878;4.584;2023-05-18T14:40:29;23.40;47.40
37782;DHT22;23621;50.878;4.584;2023-05-18T14:43:16;23.50;47.10
37782;DHT22;23621;50.878;4.584;2023-05-18T14:46:04;23.50;46.90
37782;DHT22;23621;50.878;4.584;2023-05-18T14:48:54;23.60;46.70
37782;DHT22;23621;50.878;4.584;2023-05-18T14:51:42;23.70;46.30
37782;DHT22;23621;50.878;4.584;2023-05-18T14:54:29;23.80;46.30
37782;DHT22;23621;50.878;4.584;2023-05-18T14:57:16;23.70;46.30
37782;DHT22;23621;50.878;4.584;2023-05-18T15:00:04;23.80;46.30
37782;DHT22;23621;50.878;4.584;2023-05-18T15:02:51;23.80;45.40
37782;DHT22;23621;50.878;4.584;2023-05-18T15:05:38;23.90;45.20
37782;DHT22;23621;50.878;4.584;2023-05-18T15:08:26;23.90;45.60
37782;DHT22;23621;50.878;4.584;2023-05-18T15:11:13;24.00;45.60
37782;DHT22;23621;50.878;4.584;2023-05-18T15:14:00;24.10;45.70
37782;DHT22;23621;50.878;4.584;2023-05-18T15:16:48;24.10;45.80
37782;DHT22;23621;50.878;4.584;2023-05-18T15:19:38;24.20;45.70
37782;DHT22;23621;50.878;4.584;2023-05-18T15:22:25;24.40;46.10
37782;DHT22;23621;50.878;4.584;2023-05-18T15:25:12;24.60;46.20
37782;DHT22;23621;50.878;4.584;2023-05-18T15:27:59;24.90;46.00
37782;DHT22;23621;50.878;4.584;2023-05-18T15:30:47;25.30;45.60
37782;DHT22;23621;50.878;4.584;2023-05-18T15:33:34;26.20;44.70
37782;DHT22;23621;50.878;4.584;2023-05-18T15:36:23;27.50;44.20
37782;DHT22;23621;50.878;4.584;2023-05-18T15:39:10;29.00;41.50
37782;DHT22;23621;50.878;4.584;2023-05-18T15:41:57;30.30;40.10
37782;DHT22;23621;50.878;4.584;2023-05-18T15:44:45;31.10;39.20
37782;DHT22;23621;50.878;4.584;2023-05-18T15:47:32;31.50;38.70
37782;DHT22;23621;50.878;4.584;2023-05-18T15:50:19;31.40;37.90
37782;DHT22;23621;50.878;4.584;2023-05-18T15:53:06;31.10;38.00
37782;DHT22;23621;50.878;4.584;2023-05-18T15:55:54;30.80;38.50
37782;DHT22;23621;50.878;4.584;2023-05-18T15:58:45;30.50;38.50
37782;DHT22;23621;50.878;4.584;2023-05-18T16:01:33;30.20;38.70
37782;DHT22;23621;50.878;4.584;2023-05-18T16:04:20;29.70;38.80
37782;DHT22;23621;50.878;4.584;2023-05-18T16:07:08;29.20;38.80
37782;DHT22;23621;50.878;4.584;2023-05-18T16:09:55;28.90;39.10
37782;DHT22;23621;50.878;4.584;2023-05-18T16:12:42;28.50;39.20
37782;DHT22;23621;50.878;4.584;2023-05-18T16:15:31;28.20;39.80
37782;DHT22;23621;50.878;4.584;2023-05-18T16:18:19;28.10;40.00
37782;DHT22;23621;50.878;4.584;2023-05-18T16:21:06;28.00;40.00
37782;DHT22;23621;50.878;4.584;2023-05-18T16:23:54;28.20;40.00
37782;DHT22;23621;50.878;4.584;2023-05-18T16:26:42;28.40;39.90
37782;DHT22;23621;50.878;4.584;2023-05-18T16:29:29;28.80;39.80
37782;DHT22;23621;50.878;4.584;2023-05-18T16:32:16;29.10;39.30
37782;DHT22;23621;50.878;4.584;2023-05-18T16:35:05;29.50;38.90
37782;DHT22;23621;50.878;4.584;2023-05-18T16:37:52;29.80;38.50
37782;DHT22;23621;50.878;4.584;2023-05-18T16:40:39;30.20;38.20
37782;DHT22;23621;50.878;4.584;2023-05-18T16:43:27;30.30;38.00
37782;DHT22;23621;50.878;4.584;2023-05-18T16:46:14;30.40;37.80
37782;DHT22;23621;50.878;4.584;2023-05-18T16:49:03;30.50;37.60
37782;DHT22;23621;50.878;4.584;2023-05-18T16:51:51;30.50;37.20
37782;DHT22;23621;50.878;4.584;2023-05-18T16:54:38;30.70;37.00
37782;DHT22;23621;50.878;4.584;2023-05-18T16:57:26;31.20;37.00
37782;DHT22;23621;50.878;4.584;2023-05-18T17:00:14;32.00;36.40
37782;DHT22;23621;50.878;4.584;2023-05-18T17:03:03;32.60;35.80
37782;DHT22;23621;50.878;4.584;2023-05-18T17:05:50;33.10;35.60
37782;DHT22;23621;50.878;4.584;2023-05-18T17:08:38;33.50;34.60
37782;DHT22;23621;50.878;4.584;2023-05-18T17:11:25;33.60;34.30
37782;DHT22;23621;50.878;4.584;2023-05-18T17:14:13;33.60;34.20
37782;DHT22;23621;50.878;4.584;2023-05-18T17:17:01;33.70;34.10
37782;DHT22;23621;50.878;4.584;2023-05-18T17:19:49;33.90;34.00
37782;DHT22;23621;50.878;4.584;2023-05-18T17:22:37;33.90;33.90
37782;DHT22;23621;50.878;4.584;2023-05-18T17:25:24;33.60;33.60
37782;DHT22;23621;50.878;4.584;2023-05-18T17:28:12;33.20;33.70
37782;DHT22;23621;50.878;4.584;2023-05-18T17:30:59;32.50;34.20
37782;DHT22;23621;50.878;4.584;2023-05-18T17:33:47;32.00;34.70
37782;DHT22;23621;50.878;4.584;2023-05-18T17:36:34;31.40;35.10
37782;DHT22;23621;50.878;4.584;2023-05-18T17:39:21;31.00;35.20
37782;DHT22;23621;50.878;4.584;2023-05-18T17:42:09;30.70;35.50
37782;DHT22;23621;50.878;4.584;2023-05-18T17:44:56;30.50;35.80
37782;DHT22;23621;50.878;4.584;2023-05-18T17:47:43;30.40;36.20
37782;DHT22;23621;50.878;4.584;2023-05-18T17:50:32;30.20;36.10
37782;DHT22;23621;50.878;4.584;2023-05-18T17:53:20;30.00;36.10
37782;DHT22;23621;50.878;4.584;2023-05-18T17:56:09;29.90;36.40
37782;DHT22;23621;50.878;4.584;2023-05-18T17:58:57;29.40;36.50
37782;DHT22;23621;50.878;4.584;2023-05-18T18:01:45;28.90;37.00
37782;DHT22;23621;50.878;4.584;2023-05-18T18:04:32;28.30;37.60